createdAt,value
2022-10-04T00:00:57.744Z,98744.03
2022-10-04T00:04:09.754Z,98734.75
2022-10-04T00:07:11.296Z,98731.28
2022-10-04T00:10:20.691Z,98743.84
2022-10-04T00:13:23.922Z,98734.03
2022-10-04T00:16:35.114Z,98731.16
2022-10-04T00:19:45.246Z,98721.88
2022-10-04T00:23:06.777Z,98700.94
2022-10-04T00:26:11.085Z,98707.41
2022-10-04T00:29:30.632Z,98684.91
2022-10-04T00:32:41.328Z,98679.06
2022-10-04T00:35:47.198Z,98665.16
2022-10-04T00:39:06.835Z,98659.56
2022-10-04T00:42:09.291Z,98665.13
2022-10-04T00:45:20.489Z,98671.13
2022-10-04T00:48:31.375Z,98672.09
2022-10-04T00:51:39.531Z,98655.44
2022-10-04T00:54:43.489Z,98675.66
2022-10-04T00:57:45.591Z,98660.41
2022-10-04T01:00:47.539Z,98649.69
2022-10-04T01:03:49.881Z,98659.44
2022-10-04T01:06:51.435Z,98650.13
2022-10-04T01:09:54.013Z,98637.53
2022-10-04T01:13:07.638Z,98627.75
2022-10-04T01:16:19.641Z,98617.63
2022-10-04T01:19:26.482Z,98611.38
2022-10-04T01:22:34.177Z,98621.78
2022-10-04T01:25:45.984Z,98631.69
2022-10-04T01:28:47.490Z,98605.31
2022-10-04T01:31:49.819Z,98592.13
2022-10-04T01:34:51.397Z,98591.63
2022-10-04T01:37:52.889Z,98585.09
2022-10-04T01:40:55.153Z,98573.34
2022-10-04T01:43:58.285Z,98563.44
2022-10-04T01:47:01.609Z,98572.97
2022-10-04T01:50:03.958Z,98574.19
2022-10-04T01:53:08.499Z,98555.94
2022-10-04T01:56:14.436Z,98550.59
2022-10-04T01:59:19.153Z,98548.34
2022-10-04T02:02:22.131Z,98551.91
2022-10-04T02:05:28.370Z,98537.41
2022-10-04T02:08:31.181Z,98537.81
2022-10-04T02:11:32.798Z,98546.81
2022-10-04T02:14:34.309Z,98531.22
2022-10-04T02:17:38.256Z,98532.81
2022-10-04T02:20:40.201Z,98525.50
2022-10-04T02:23:41.865Z,98526.97
2022-10-04T02:26:48.613Z,98512.50
2022-10-04T02:29:50.145Z,98513.78
2022-10-04T02:33:00.416Z,98508.41
2022-10-04T02:36:02.057Z,98492.34
2022-10-04T02:39:23.821Z,98482.09
2022-10-04T02:42:28.412Z,98466.22
2022-10-04T02:45:48.681Z,98464.16
2022-10-04T02:48:54.815Z,98460.41
2022-10-04T02:52:03.846Z,98459.47
2022-10-04T02:55:22.493Z,98464.06
2022-10-04T02:58:24.418Z,98447.66
2022-10-04T03:01:27.692Z,98444.22
2022-10-04T03:04:32.826Z,98427.81
2022-10-04T03:07:35.034Z,98421.34
2022-10-04T03:10:36.557Z,98406.38
2022-10-04T03:13:38.857Z,98406.88
2022-10-04T03:16:41.354Z,98381.06
2022-10-04T03:19:42.920Z,98414.00
2022-10-04T03:22:47.031Z,98374.59
2022-10-04T03:26:09.173Z,98387.38
2022-10-04T03:29:11.635Z,98397.16
2022-10-04T03:32:14.005Z,98402.69
2022-10-04T03:35:28.663Z,98384.88
2022-10-04T03:38:30.233Z,98389.91
2022-10-04T03:41:33.185Z,98386.44
2022-10-04T03:44:34.942Z,98391.19
2022-10-04T03:47:37.553Z,98387.84
2022-10-04T03:50:46.965Z,98378.91
2022-10-04T03:53:53.412Z,98374.97
2022-10-04T03:56:55.540Z,98371.00
2022-10-04T03:59:57.537Z,98376.88
2022-10-04T04:02:59.886Z,98368.97
2022-10-04T04:06:01.433Z,98354.94
2022-10-04T04:09:02.982Z,98351.31
2022-10-04T04:12:05.351Z,98357.63
2022-10-04T04:15:09.198Z,98350.66
2022-10-04T04:18:13.775Z,98364.56
2022-10-04T04:21:16.549Z,98359.81
2022-10-04T04:24:23.102Z,98367.53
2022-10-04T04:27:29.033Z,98367.09
2022-10-04T04:30:30.810Z,98359.66
2022-10-04T04:33:34.509Z,98355.41
2022-10-04T04:36:43.087Z,98343.91
2022-10-04T04:39:49.132Z,98339.00
2022-10-04T04:42:50.689Z,98337.09
2022-10-04T04:46:08.561Z,98350.22
2022-10-04T04:49:15.248Z,98336.47
2022-10-04T04:52:17.943Z,98336.63
2022-10-04T04:55:26.593Z,98342.28
2022-10-04T04:58:33.279Z,98338.84
2022-10-04T05:01:35.632Z,98347.81
2022-10-04T05:04:37.189Z,98353.84
2022-10-04T05:07:38.684Z,98347.97
2022-10-04T05:10:55.204Z,98348.94
2022-10-04T05:13:57.033Z,98346.41
2022-10-04T05:16:58.531Z,98346.56
2022-10-04T05:20:00.703Z,98328.59
2022-10-04T05:23:02.190Z,98329.38
2022-10-04T05:26:04.277Z,98316.28
2022-10-04T05:29:10.346Z,98320.06
2022-10-04T05:32:24.181Z,98315.19
2022-10-04T05:35:26.393Z,98318.03
2022-10-04T05:38:31.954Z,98318.63
2022-10-04T05:41:40.086Z,98318.16
2022-10-04T05:44:52.044Z,98325.72
2022-10-04T05:47:54.352Z,98312.78
2022-10-04T05:50:55.865Z,98301.41
2022-10-04T05:53:58.292Z,98307.75
2022-10-04T05:57:05.904Z,98295.25
2022-10-04T06:00:24.215Z,98308.53
2022-10-04T06:03:25.771Z,98309.63
2022-10-04T06:06:36.153Z,98306.63
2022-10-04T06:09:42.875Z,98294.44
2022-10-04T06:12:50.460Z,98287.06
2022-10-04T06:16:11.713Z,98282.47
2022-10-04T06:19:24.118Z,98275.56
2022-10-04T06:22:28.554Z,98264.66
2022-10-04T06:25:31.983Z,98258.69
2022-10-04T06:28:36.756Z,98256.50
2022-10-04T06:31:44.942Z,98263.75
2022-10-04T06:34:46.663Z,98259.47
2022-10-04T06:37:57.227Z,98261.22
2022-10-04T06:41:01.609Z,98269.13
2022-10-04T06:44:05.861Z,98251.28
2022-10-04T06:47:15.897Z,98245.97
2022-10-04T06:50:26.642Z,98244.22
2022-10-04T06:53:35.217Z,98245.31
2022-10-04T06:56:49.098Z,98254.16
2022-10-04T06:59:50.955Z,98265.34
2022-10-04T07:02:54.106Z,98249.25
2022-10-04T07:05:57.790Z,98240.88
2022-10-04T07:09:02.517Z,98240.25
2022-10-04T07:12:08.436Z,98228.59
2022-10-04T07:15:14.662Z,98224.03
2022-10-04T07:18:25.901Z,98229.53
2022-10-04T07:21:36.679Z,98228.59
2022-10-04T07:24:44.238Z,98236.31
2022-10-04T07:28:13.494Z,98230.81
2022-10-04T07:31:23.122Z,98221.78
2022-10-04T07:34:28.166Z,98224.16
2022-10-04T07:37:30.053Z,98219.91
2022-10-04T07:40:31.698Z,98218.94
2022-10-04T07:43:34.343Z,98203.63
2022-10-04T07:46:42.114Z,98197.47
2022-10-04T07:49:43.666Z,98192.25
2022-10-04T07:53:09.192Z,98204.09
2022-10-04T07:56:11.845Z,98207.38
2022-10-04T07:59:13.449Z,98204.66
2022-10-04T08:02:18.235Z,98206.22
2022-10-04T08:05:22.037Z,98168.81
2022-10-04T08:08:32.790Z,98180.31
2022-10-04T08:11:50.116Z,98154.03
2022-10-04T08:14:54.436Z,98165.53
2022-10-04T08:17:57.514Z,98164.88
2022-10-04T08:21:03.855Z,98171.69
2022-10-04T08:24:11.590Z,98161.59
2022-10-04T08:27:19.110Z,98179.09
2022-10-04T08:30:20.717Z,98175.19
2022-10-04T08:33:22.979Z,98165.09
2022-10-04T08:36:39.569Z,98190.03
2022-10-04T08:39:59.947Z,98201.22
2022-10-04T08:43:19.799Z,98193.50
2022-10-04T08:46:21.440Z,98194.94
2022-10-04T08:49:26.272Z,98195.09
2022-10-04T08:52:34.058Z,98192.72
2022-10-04T08:55:55.368Z,98191.91
2022-10-04T08:59:15.808Z,98200.56
2022-10-04T09:02:23.463Z,98203.72
2022-10-04T09:05:31.154Z,98217.13
2022-10-04T09:08:51.678Z,98198.81
2022-10-04T09:12:15.361Z,98186.31
2022-10-04T09:15:18.901Z,98196.41
2022-10-04T09:18:22.434Z,98193.88
2022-10-04T09:21:40.656Z,98196.56
2022-10-04T09:25:09.176Z,98179.81
2022-10-04T09:28:10.861Z,98189.00
2022-10-04T09:31:27.920Z,98135.97
2022-10-04T09:34:31.699Z,98153.63
2022-10-04T09:37:51.733Z,98163.59
2022-10-04T09:41:04.090Z,98157.44
2022-10-04T09:44:29.230Z,98158.66
2022-10-04T09:47:38.008Z,98162.94
2022-10-04T09:50:54.769Z,98174.28
2022-10-04T09:53:59.193Z,98165.28
2022-10-04T09:57:01.349Z,98171.97
2022-10-04T10:00:05.506Z,98160.44
2022-10-04T10:03:17.575Z,98173.72
2022-10-04T10:06:22.846Z,98168.94
2022-10-04T10:09:44.553Z,98147.81
2022-10-04T10:13:12.438Z,98166.75
2022-10-04T10:16:32.687Z,98162.66
2022-10-04T10:19:52.872Z,98165.25
2022-10-04T10:23:12.657Z,98157.25
2022-10-04T10:26:14.433Z,98154.84
2022-10-04T10:29:23.257Z,98164.78
2022-10-04T10:32:33.971Z,98161.31
2022-10-04T10:35:44.156Z,98146.81
2022-10-04T10:39:01.058Z,98156.56
2022-10-04T10:42:06.395Z,98157.41
2022-10-04T10:45:40.755Z,98158.91
2022-10-04T10:48:45.397Z,98146.41
2022-10-04T10:51:54.165Z,98144.47
2022-10-04T10:55:01.952Z,98147.31
2022-10-04T10:58:03.609Z,98163.88
2022-10-04T11:01:23.628Z,98145.34
2022-10-04T11:04:25.213Z,98151.34
2022-10-04T11:07:37.285Z,98147.00
2022-10-04T11:10:38.797Z,98146.19
2022-10-04T11:13:43.222Z,98150.84
2022-10-04T11:16:48.105Z,98121.59
2022-10-04T11:19:55.005Z,98125.66
2022-10-04T11:23:20.628Z,98129.44
2022-10-04T11:26:32.929Z,98146.94
2022-10-04T11:29:54.761Z,98146.41
2022-10-04T11:33:02.593Z,98134.25
2022-10-04T11:36:19.043Z,98125.78
2022-10-04T11:39:43.756Z,98102.84
2022-10-04T11:42:58.082Z,98100.69
2022-10-04T11:46:03.815Z,98091.97
2022-10-04T11:49:10.825Z,98087.50
2022-10-04T11:52:17.612Z,98082.94
2022-10-04T11:55:26.134Z,98092.44
2022-10-04T11:58:50.678Z,98095.31
2022-10-04T12:02:02.806Z,98105.75
2022-10-04T12:05:23.442Z,98062.78
2022-10-04T12:08:27.864Z,98077.56
2022-10-04T12:11:53.772Z,98083.53
2022-10-04T12:15:08.494Z,98110.47
2022-10-04T12:18:26.483Z,98132.44
2022-10-04T12:21:34.816Z,98112.28
2022-10-04T12:24:51.393Z,98091.84
2022-10-04T12:27:53.013Z,98122.09
2022-10-04T12:31:09.641Z,98106.19
2022-10-04T12:34:14.845Z,98071.38
2022-10-04T12:37:30.954Z,98093.13
2022-10-04T12:40:35.294Z,98084.59
2022-10-04T12:43:41.034Z,98103.31
2022-10-04T12:46:54.818Z,98089.81
2022-10-04T12:50:05.419Z,98091.41
2022-10-04T12:53:07.031Z,98107.13
2022-10-04T12:56:21.915Z,98107.56
2022-10-04T12:59:29.550Z,98132.47
2022-10-04T13:02:54.694Z,98123.72
2022-10-04T13:06:03.078Z,98106.41
2022-10-04T13:09:07.769Z,98105.97
2022-10-04T13:12:27.523Z,98105.59
2022-10-04T13:19:10.869Z,98130.13
2022-10-04T13:22:31.862Z,98114.16
2022-10-04T13:25:45.776Z,98101.13
2022-10-04T13:28:56.582Z,98096.00
2022-10-04T13:32:21.166Z,98084.16
2022-10-04T13:35:25.529Z,98091.53
2022-10-04T13:38:27.787Z,98071.63
2022-10-04T13:41:48.161Z,98065.66
2022-10-04T13:45:02.594Z,98063.31
2022-10-04T13:48:04.142Z,98072.84
2022-10-04T13:51:24.542Z,98060.28
2022-10-04T13:54:50.679Z,98058.38
2022-10-04T13:57:57.942Z,98042.34
2022-10-04T14:01:05.583Z,98042.00
2022-10-04T14:04:25.227Z,98053.66
2022-10-04T14:07:32.549Z,98052.78
2022-10-04T14:10:47.492Z,98047.47
2022-10-04T14:13:55.634Z,98061.81
2022-10-04T14:17:13.678Z,98077.53
2022-10-04T14:20:35.461Z,98080.34
2022-10-04T14:24:02.789Z,98075.41
2022-10-04T14:27:23.033Z,98098.72
2022-10-04T14:30:24.730Z,98105.78
2022-10-04T14:33:29.469Z,98087.94
2022-10-04T14:36:50.746Z,98104.56
2022-10-04T14:40:07.345Z,98087.63
2022-10-04T14:43:21.068Z,98085.03
2022-10-04T14:47:01.831Z,98063.50
2022-10-04T14:50:21.807Z,98063.28
2022-10-04T14:53:27.652Z,98084.09
2022-10-04T14:56:43.959Z,98076.47
2022-10-04T14:59:47.363Z,98079.84
2022-10-04T15:02:56.400Z,98077.94
2022-10-04T15:06:06.513Z,98069.44
2022-10-04T15:09:11.113Z,98062.38
2022-10-04T15:12:51.900Z,98063.06
2022-10-04T15:16:14.280Z,98062.38
2022-10-04T15:19:16.535Z,98074.28
2022-10-04T15:22:29.634Z,98074.94
2022-10-04T15:25:43.197Z,98092.00
2022-10-04T15:28:44.725Z,98091.13
2022-10-04T15:31:46.216Z,98090.78
2022-10-04T15:34:50.542Z,98094.22
2022-10-04T15:37:55.054Z,98087.53
2022-10-04T15:41:03.427Z,98118.91
2022-10-04T15:44:11.759Z,98069.47
2022-10-04T15:47:26.104Z,98085.50
2022-10-04T15:50:30.709Z,98085.72
2022-10-04T15:53:50.458Z,98079.44
2022-10-04T15:56:55.809Z,98084.81
2022-10-04T15:59:57.335Z,98086.06
2022-10-04T16:03:10.775Z,98082.59
2022-10-04T16:06:31.207Z,98088.19
2022-10-04T16:09:37.451Z,98056.94
2022-10-04T16:12:51.885Z,98069.59
2022-10-04T16:16:17.609Z,98047.06
2022-10-04T16:19:19.291Z,98040.78
2022-10-04T16:22:33.590Z,98048.53
2022-10-04T16:25:36.867Z,98022.63
2022-10-04T16:28:44.646Z,98028.72
2022-10-04T16:31:52.454Z,98031.28
2022-10-04T16:34:57.269Z,98045.03
2022-10-04T16:38:00.532Z,98037.31
2022-10-04T16:41:13.363Z,98028.34
2022-10-04T16:44:33.678Z,98025.91
2022-10-04T16:47:39.536Z,98029.47
2022-10-04T16:50:50.935Z,98064.63
2022-10-04T16:54:07.811Z,98062.63
2022-10-04T16:57:15.203Z,98054.09
2022-10-04T17:00:31.949Z,98033.59
2022-10-04T17:03:34.433Z,98036.38
2022-10-04T17:06:44.069Z,98002.56
2022-10-04T17:09:49.936Z,97988.34
2022-10-04T17:12:54.163Z,97999.31
2022-10-04T17:16:06.749Z,98008.38
2022-10-04T17:19:15.394Z,98018.50
2022-10-04T17:22:25.885Z,98037.50
2022-10-04T17:25:27.943Z,98056.38
2022-10-04T17:28:41.803Z,98055.91
2022-10-04T17:31:48.938Z,98070.78
2022-10-04T17:35:09.973Z,98072.88
2022-10-04T17:38:20.747Z,98086.13
2022-10-04T17:41:40.929Z,98074.59
2022-10-04T17:44:43.101Z,98082.97
2022-10-04T17:48:18.382Z,98084.53
2022-10-04T17:51:41.644Z,98087.81
2022-10-04T17:55:03.483Z,98082.44
2022-10-04T17:58:09.689Z,98082.56
2022-10-04T18:01:27.726Z,98094.09
2022-10-04T18:04:30.544Z,98083.03
2022-10-04T18:07:33.650Z,98092.53
2022-10-04T18:10:37.147Z,98089.50
2022-10-04T18:13:52.197Z,98087.94
2022-10-04T18:16:57.375Z,98088.72
2022-10-04T18:20:17.733Z,98065.00
2022-10-04T18:23:27.325Z,98055.25
2022-10-04T18:26:30.216Z,98055.59
2022-10-04T18:29:39.236Z,98063.19
2022-10-04T18:32:47.302Z,98060.19
2022-10-04T18:36:05.174Z,98067.63
2022-10-04T18:39:09.529Z,98073.00
2022-10-04T18:42:20.382Z,98060.72
2022-10-04T18:45:23.668Z,98065.28
2022-10-04T18:48:35.837Z,98067.50
2022-10-04T18:51:56.290Z,98059.78
2022-10-04T18:55:00.558Z,98045.81
2022-10-04T18:58:20.555Z,98047.38
2022-10-04T19:01:47.249Z,98044.88
2022-10-04T19:05:02.075Z,98041.28
2022-10-04T19:08:21.784Z,98048.44
2022-10-04T19:11:24.474Z,98057.59
2022-10-04T19:14:26.082Z,98060.28
2022-10-04T19:17:36.293Z,98061.91
2022-10-04T19:20:37.954Z,98057.97
2022-10-04T19:23:51.553Z,98036.06
2022-10-04T19:27:19.346Z,98037.84
2022-10-04T19:30:28.559Z,98041.81
2022-10-04T19:33:50.016Z,98037.09
2022-10-04T19:37:01.864Z,98044.22
2022-10-04T19:40:04.153Z,98040.31
2022-10-04T19:43:16.894Z,98037.94
2022-10-04T19:46:18.504Z,98043.50
2022-10-04T19:49:23.417Z,98048.72
2022-10-04T19:52:28.024Z,98035.97
2022-10-04T19:55:32.137Z,98017.84
2022-10-04T19:58:40.922Z,98016.28
2022-10-04T20:01:42.636Z,98017.06
2022-10-04T20:04:48.769Z,98021.75
2022-10-04T20:07:51.530Z,98026.97
2022-10-04T20:10:53.093Z,98021.06
2022-10-04T20:14:10.207Z,98016.31
2022-10-04T20:17:11.822Z,97999.88
2022-10-04T20:20:14.583Z,98005.75
2022-10-04T20:23:17.475Z,97995.22
2022-10-04T20:26:55.400Z,97997.91
2022-10-04T20:29:59.013Z,97987.38
2022-10-04T20:33:01.952Z,97986.47
2022-10-04T20:36:10.465Z,97988.88
2022-10-04T20:39:31.988Z,97981.59
2022-10-04T20:42:37.291Z,97979.13
2022-10-04T20:45:51.794Z,97981.66
2022-10-04T20:48:54.170Z,97988.19
2022-10-04T20:51:55.719Z,97978.91
2022-10-04T20:54:59.027Z,97981.91
2022-10-04T20:58:01.692Z,97974.31
2022-10-04T21:01:36.822Z,97958.25
2022-10-04T21:04:50.382Z,97948.34
2022-10-04T21:08:10.375Z,97939.94
2022-10-04T21:11:19.362Z,97940.09
2022-10-04T21:14:25.560Z,97947.16
2022-10-04T21:17:30.116Z,97936.09
2022-10-04T21:20:50.327Z,97934.19
2022-10-04T21:23:51.910Z,97925.38
2022-10-04T21:26:57.182Z,97906.94
2022-10-04T21:29:59.061Z,97899.34
2022-10-04T21:33:00.577Z,97893.97
2022-10-04T21:36:02.518Z,97891.44
2022-10-04T21:39:04.158Z,97890.00
2022-10-04T21:42:05.723Z,97865.22
2022-10-04T21:45:07.543Z,97863.00
2022-10-04T21:48:09.104Z,97871.81
2022-10-04T21:51:10.694Z,97878.56
2022-10-04T21:54:12.255Z,97884.63
2022-10-04T21:57:13.883Z,97878.25
2022-10-04T22:00:15.475Z,97875.44
2022-10-04T22:03:17.027Z,97876.91
2022-10-04T22:06:18.566Z,97873.41
2022-10-04T22:09:20.095Z,97870.31
2022-10-04T22:12:21.652Z,97875.53
2022-10-04T22:15:24.219Z,97861.22
2022-10-04T22:18:25.784Z,97845.78
2022-10-04T22:21:27.374Z,97840.41
2022-10-04T22:24:29.078Z,97827.47
2022-10-04T22:27:30.672Z,97832.50
2022-10-04T22:30:32.288Z,97832.97
2022-10-04T22:33:40.873Z,97829.16
2022-10-04T22:36:42.407Z,97833.88
2022-10-04T22:39:43.958Z,97831.19
2022-10-04T22:42:45.690Z,97801.69
2022-10-04T22:45:47.402Z,97784.03
2022-10-04T22:48:49.193Z,97784.03
2022-10-04T22:51:51.308Z,97769.53
2022-10-04T22:54:53.590Z,97753.88
2022-10-04T22:57:55.143Z,97738.13
2022-10-04T23:00:56.628Z,97750.75
2022-10-04T23:03:58.151Z,97737.34
2022-10-04T23:06:59.665Z,97732.41
2022-10-04T23:10:01.200Z,97734.44
2022-10-04T23:13:02.802Z,97736.66
2022-10-04T23:16:14.324Z,97720.56
2022-10-04T23:19:18.697Z,97717.88
2022-10-04T23:22:21.006Z,97718.34
2022-10-04T23:25:22.522Z,97710.09
2022-10-04T23:28:24.078Z,97678.78
2022-10-04T23:31:26.446Z,97679.81
2022-10-04T23:34:29.238Z,97683.25
2022-10-04T23:37:31.178Z,97679.91
2022-10-04T23:40:32.754Z,97669.19
2022-10-04T23:43:34.254Z,97669.84
2022-10-04T23:46:35.729Z,97667.41
2022-10-04T23:49:37.349Z,97655.91
2022-10-04T23:52:39.005Z,97651.53
2022-10-04T23:55:42.094Z,97639.47
2022-10-04T23:58:43.634Z,97633.31
